AAL1350 KSLC-KLAX
Flight info
| Callsign | AAL1350 |
|---|---|
| Flight time | 1h 27m |
| Altitude | 36000 |
| Route | WINEN LAKRR HAKMN ANJLL4 |
| Aircraft | A319/M-SDE3FGHIRWY/LB1 |
Departure
| Time | 2026-04-21 02:50 |
|---|---|
| Airport | Salt Lake City International Airport (KSLC) |
Arrival
| Time | 2026-04-21 04:18 |
|---|---|
| Airport | Los Angeles International Airport (KLAX) |
| Time | Latitude | Longitude | Altitude | Speed | Heading |
|---|---|---|---|---|---|
| 2026-04-21 02:23 | 40.78646 | -111.98038 | 4233 ft | 0 kts | 174° |
| 2026-04-21 02:35 | 40.78649 | -111.98039 | 4233 ft | 2 kts | 174° |
| 2026-04-21 02:36 | 40.78664 | -111.98041 | 4233 ft | 2 kts | 174° |
| 2026-04-21 02:36 | 40.78679 | -111.98043 | 4233 ft | 2 kts | 174° |
| 2026-04-21 02:36 | 40.78689 | -111.98045 | 4233 ft | 2 kts | 174° |
| 2026-04-21 02:36 | 40.78703 | -111.98049 | 4233 ft | 2 kts | 152° |
| 2026-04-21 02:37 | 40.78716 | -111.98061 | 4232 ft | 2 kts | 134° |
| 2026-04-21 02:37 | 40.78725 | -111.98077 | 4232 ft | 2 kts | 116° |
| 2026-04-21 02:37 | 40.78730 | -111.98096 | 4232 ft | 2 kts | 98° |
| 2026-04-21 02:37 | 40.78731 | -111.98109 | 4231 ft | 0 kts | 86° |
| 2026-04-21 02:38 | 40.78730 | -111.98117 | 4231 ft | 0 kts | 84° |
| 2026-04-21 02:42 | 40.78730 | -111.98115 | 4231 ft | 0 kts | 84° |
| 2026-04-21 02:42 | 40.78731 | -111.98098 | 4231 ft | 2 kts | 85° |
| 2026-04-21 02:42 | 40.78734 | -111.98053 | 4232 ft | 6 kts | 86° |
| 2026-04-21 02:42 | 40.78738 | -111.97987 | 4232 ft | 8 kts | 85° |
| 2026-04-21 02:43 | 40.78744 | -111.97885 | 4231 ft | 13 kts | 86° |
| 2026-04-21 02:43 | 40.78762 | -111.97781 | 4232 ft | 9 kts | 25° |
| 2026-04-21 02:43 | 40.78771 | -111.97776 | 4232 ft | 0 kts | 23° |
| 2026-04-21 02:43 | 40.78779 | -111.97774 | 4232 ft | 2 kts | 359° |
| 2026-04-21 02:44 | 40.78802 | -111.97774 | 4232 ft | 4 kts | 359° |
| 2026-04-21 02:44 | 40.78837 | -111.97774 | 4232 ft | 4 kts | 20° |
| 2026-04-21 02:44 | 40.78863 | -111.97737 | 4232 ft | 6 kts | 21° |
| 2026-04-21 02:44 | 40.78929 | -111.97738 | 4232 ft | 11 kts | 355° |
| 2026-04-21 02:45 | 40.79028 | -111.97749 | 4231 ft | 16 kts | 355° |
| 2026-04-21 02:45 | 40.79159 | -111.97764 | 4230 ft | 20 kts | 354° |
| 2026-04-21 02:45 | 40.79283 | -111.97840 | 4228 ft | 19 kts | 350° |
| 2026-04-21 02:45 | 40.79419 | -111.97854 | 4229 ft | 18 kts | 355° |
| 2026-04-21 02:46 | 40.79546 | -111.97868 | 4231 ft | 17 kts | 355° |
| 2026-04-21 02:46 | 40.79669 | -111.97882 | 4230 ft | 17 kts | 354° |
| 2026-04-21 02:46 | 40.79790 | -111.97897 | 4231 ft | 17 kts | 355° |
| 2026-04-21 02:46 | 40.79907 | -111.97911 | 4232 ft | 16 kts | 355° |
| 2026-04-21 02:47 | 40.80016 | -111.97923 | 4234 ft | 15 kts | 355° |
| 2026-04-21 02:47 | 40.80123 | -111.97935 | 4234 ft | 15 kts | 355° |
| 2026-04-21 02:47 | 40.80231 | -111.97949 | 4235 ft | 15 kts | 353° |
| 2026-04-21 02:47 | 40.80341 | -111.97986 | 4234 ft | 16 kts | 342° |
| 2026-04-21 02:48 | 40.80457 | -111.98003 | 4233 ft | 17 kts | 355° |
| 2026-04-21 02:48 | 40.80568 | -111.97961 | 4234 ft | 17 kts | 41° |
| 2026-04-21 02:48 | 40.80627 | -111.97827 | 4234 ft | 17 kts | 74° |
| 2026-04-21 02:48 | 40.80620 | -111.97683 | 4236 ft | 12 kts | 154° |
| 2026-04-21 02:49 | 40.80592 | -111.97679 | 4236 ft | 5 kts | 174° |
| 2026-04-21 02:49 | 40.80330 | -111.97649 | 4238 ft | 71 kts | 175° |
| 2026-04-21 02:49 | 40.79630 | -111.97565 | 4233 ft | 130 kts | 175° |
| 2026-04-21 02:49 | 40.78529 | -111.97439 | 4239 ft | 179 kts | 175° |
| 2026-04-21 02:50 | 40.77256 | -111.97299 | 4666 ft | 186 kts | 175° |
| 2026-04-21 02:50 | 40.75962 | -111.97159 | 5306 ft | 187 kts | 174° |
| 2026-04-21 02:50 | 40.74663 | -111.96996 | 5930 ft | 187 kts | 174° |
| 2026-04-21 02:50 | 40.73369 | -111.96825 | 6510 ft | 185 kts | 173° |
| 2026-04-21 02:51 | 40.72052 | -111.96602 | 6774 ft | 194 kts | 172° |
| 2026-04-21 02:51 | 40.70678 | -111.96339 | 6996 ft | 205 kts | 171° |
| 2026-04-21 02:51 | 40.69216 | -111.96045 | 7227 ft | 216 kts | 172° |
| 2026-04-21 02:51 | 40.67664 | -111.95718 | 7461 ft | 228 kts | 172° |
| 2026-04-21 02:52 | 40.66042 | -111.95367 | 7696 ft | 240 kts | 172° |
| 2026-04-21 02:52 | 40.64322 | -111.94987 | 7859 ft | 257 kts | 172° |
| 2026-04-21 02:52 | 40.62515 | -111.94586 | 8269 ft | 264 kts | 171° |
| 2026-04-21 02:52 | 40.60648 | -111.94218 | 8509 ft | 276 kts | 176° |
| 2026-04-21 02:53 | 40.58675 | -111.94153 | 8819 ft | 286 kts | 181° |
| 2026-04-21 02:53 | 40.56656 | -111.94186 | 9296 ft | 291 kts | 181° |
| 2026-04-21 02:53 | 40.54637 | -111.94213 | 9808 ft | 293 kts | 181° |
| 2026-04-21 02:53 | 40.52588 | -111.94218 | 10290 ft | 294 kts | 180° |
| 2026-04-21 02:54 | 40.50494 | -111.94208 | 10513 ft | 306 kts | 180° |
| 2026-04-21 02:54 | 40.48323 | -111.94185 | 10716 ft | 317 kts | 180° |
| 2026-04-21 02:54 | 40.46076 | -111.94151 | 11013 ft | 325 kts | 180° |
| 2026-04-21 02:54 | 40.43787 | -111.94115 | 11526 ft | 325 kts | 180° |
| 2026-04-21 02:55 | 40.41508 | -111.94085 | 12063 ft | 326 kts | 180° |
| 2026-04-21 02:55 | 40.39238 | -111.94053 | 12591 ft | 327 kts | 180° |
| 2026-04-21 02:55 | 40.36962 | -111.94019 | 13123 ft | 329 kts | 180° |
| 2026-04-21 02:55 | 40.34638 | -111.93984 | 13663 ft | 331 kts | 180° |
| 2026-04-21 02:56 | 40.32339 | -111.93950 | 14194 ft | 333 kts | 181° |
| 2026-04-21 02:56 | 40.27641 | -111.93932 | 15257 ft | 337 kts | 184° |
| 2026-04-21 02:56 | 40.25278 | -111.94147 | 15810 ft | 338 kts | 187° |
| 2026-04-21 02:57 | 40.22907 | -111.94511 | 16306 ft | 341 kts | 188° |
| 2026-04-21 02:57 | 40.20541 | -111.94884 | 16824 ft | 344 kts | 188° |
| 2026-04-21 02:57 | 40.18137 | -111.95261 | 17361 ft | 347 kts | 188° |
| 2026-04-21 02:57 | 40.15729 | -111.95636 | 17899 ft | 350 kts | 188° |
| 2026-04-21 02:58 | 40.13294 | -111.96015 | 18438 ft | 352 kts | 188° |
| 2026-04-21 02:58 | 40.10822 | -111.96384 | 18967 ft | 355 kts | 188° |
| 2026-04-21 02:58 | 40.08354 | -111.96745 | 19471 ft | 359 kts | 188° |
| 2026-04-21 02:58 | 40.05847 | -111.97111 | 19980 ft | 362 kts | 188° |
| 2026-04-21 02:59 | 40.03316 | -111.97485 | 20479 ft | 365 kts | 189° |
| 2026-04-21 02:59 | 40.00785 | -111.97859 | 20959 ft | 368 kts | 189° |
| 2026-04-21 02:59 | 39.98199 | -111.98241 | 21425 ft | 371 kts | 189° |
| 2026-04-21 02:59 | 39.95627 | -111.98620 | 21872 ft | 374 kts | 189° |
| 2026-04-21 03:00 | 39.93003 | -111.99006 | 22323 ft | 378 kts | 189° |
| 2026-04-21 03:00 | 39.90348 | -111.99395 | 22775 ft | 381 kts | 189° |
| 2026-04-21 03:00 | 39.87695 | -111.99781 | 23215 ft | 384 kts | 188° |
| 2026-04-21 03:00 | 39.85026 | -112.00168 | 23644 ft | 386 kts | 188° |
| 2026-04-21 03:01 | 39.82332 | -112.00557 | 24051 ft | 390 kts | 188° |
| 2026-04-21 03:01 | 39.79611 | -112.00951 | 24464 ft | 393 kts | 188° |
| 2026-04-21 03:01 | 39.76857 | -112.01349 | 24884 ft | 396 kts | 189° |
| 2026-04-21 03:01 | 39.74120 | -112.01745 | 25292 ft | 398 kts | 189° |
| 2026-04-21 03:02 | 39.71327 | -112.02150 | 25688 ft | 401 kts | 189° |
| 2026-04-21 03:02 | 39.68522 | -112.02557 | 26064 ft | 405 kts | 189° |
| 2026-04-21 03:02 | 39.65734 | -112.02961 | 26447 ft | 407 kts | 189° |
| 2026-04-21 03:02 | 39.62835 | -112.03381 | 26846 ft | 409 kts | 189° |
| 2026-04-21 03:03 | 39.59929 | -112.03801 | 27235 ft | 412 kts | 189° |
| 2026-04-21 03:03 | 39.56979 | -112.04227 | 27611 ft | 414 kts | 189° |
| 2026-04-21 03:03 | 39.54096 | -112.04643 | 27963 ft | 415 kts | 189° |
| 2026-04-21 03:03 | 39.51185 | -112.05063 | 28300 ft | 418 kts | 189° |
| 2026-04-21 03:04 | 39.48264 | -112.05485 | 28641 ft | 420 kts | 189° |
| 2026-04-21 03:04 | 39.45367 | -112.05902 | 28976 ft | 422 kts | 189° |
| 2026-04-21 03:04 | 39.42416 | -112.06323 | 29321 ft | 424 kts | 189° |
| 2026-04-21 03:04 | 39.39452 | -112.06744 | 29659 ft | 426 kts | 189° |
| 2026-04-21 03:05 | 39.36522 | -112.07159 | 29986 ft | 428 kts | 189° |
| 2026-04-21 03:05 | 39.33574 | -112.07577 | 30298 ft | 429 kts | 189° |
| 2026-04-21 03:05 | 39.30499 | -112.08013 | 30612 ft | 431 kts | 189° |
| 2026-04-21 03:05 | 39.27500 | -112.08439 | 30909 ft | 433 kts | 189° |
| 2026-04-21 03:06 | 39.24484 | -112.08865 | 31262 ft | 433 kts | 189° |
| 2026-04-21 03:06 | 39.21492 | -112.09306 | 31640 ft | 431 kts | 190° |
| 2026-04-21 03:06 | 39.18508 | -112.09946 | 31989 ft | 429 kts | 194° |
| 2026-04-21 03:06 | 39.15603 | -112.10832 | 32308 ft | 427 kts | 198° |
| 2026-04-21 03:07 | 39.12750 | -112.11968 | 32605 ft | 426 kts | 202° |
| 2026-04-21 03:07 | 39.09977 | -112.13346 | 32892 ft | 425 kts | 206° |
| 2026-04-21 03:07 | 39.07295 | -112.14952 | 33188 ft | 425 kts | 209° |
| 2026-04-21 03:07 | 39.04678 | -112.16785 | 33490 ft | 424 kts | 212° |
| 2026-04-21 03:08 | 39.02100 | -112.18670 | 33785 ft | 424 kts | 212° |
| 2026-04-21 03:08 | 38.99522 | -112.20557 | 34063 ft | 424 kts | 212° |
| 2026-04-21 03:08 | 38.96948 | -112.22437 | 34330 ft | 425 kts | 212° |
| 2026-04-21 03:08 | 38.94310 | -112.24361 | 34569 ft | 425 kts | 212° |
| 2026-04-21 03:09 | 38.91673 | -112.26279 | 34786 ft | 426 kts | 212° |
| 2026-04-21 03:09 | 38.88994 | -112.28226 | 34988 ft | 428 kts | 212° |
| 2026-04-21 03:09 | 38.86372 | -112.30119 | 35186 ft | 429 kts | 212° |
| 2026-04-21 03:09 | 38.83771 | -112.31992 | 35376 ft | 430 kts | 212° |
| 2026-04-21 03:10 | 38.81162 | -112.33875 | 35558 ft | 431 kts | 212° |
| 2026-04-21 03:10 | 38.78521 | -112.35780 | 35729 ft | 432 kts | 212° |
| 2026-04-21 03:10 | 38.75882 | -112.37687 | 35900 ft | 433 kts | 212° |
| 2026-04-21 03:10 | 38.73241 | -112.39593 | 36065 ft | 434 kts | 212° |
| 2026-04-21 03:11 | 38.67971 | -112.43395 | 36150 ft | 435 kts | 212° |
| 2026-04-21 03:11 | 38.62693 | -112.47194 | 36208 ft | 435 kts | 212° |
| 2026-04-21 03:12 | 38.57340 | -112.51042 | 36263 ft | 435 kts | 212° |
| 2026-04-21 03:12 | 38.52032 | -112.54851 | 36325 ft | 435 kts | 212° |
| 2026-04-21 03:13 | 38.46742 | -112.58642 | 36376 ft | 435 kts | 212° |
| 2026-04-21 03:13 | 38.41343 | -112.62505 | 36319 ft | 434 kts | 211° |
| 2026-04-21 03:14 | 38.35890 | -112.66402 | 36213 ft | 434 kts | 211° |
| 2026-04-21 03:14 | 38.30483 | -112.70283 | 36134 ft | 435 kts | 211° |
| 2026-04-21 03:15 | 38.25056 | -112.74155 | 36076 ft | 435 kts | 211° |
| 2026-04-21 03:15 | 38.19580 | -112.78053 | 36045 ft | 435 kts | 211° |
| 2026-04-21 03:16 | 38.14141 | -112.81923 | 36052 ft | 435 kts | 211° |
| 2026-04-21 03:16 | 38.08731 | -112.85741 | 36060 ft | 434 kts | 210° |
| 2026-04-21 03:17 | 38.03251 | -112.89599 | 36075 ft | 434 kts | 210° |
| 2026-04-21 03:17 | 37.97784 | -112.93451 | 36091 ft | 434 kts | 210° |
| 2026-04-21 03:18 | 37.92313 | -112.97304 | 36114 ft | 434 kts | 210° |
| 2026-04-21 03:18 | 37.86791 | -113.01178 | 36137 ft | 434 kts | 210° |
| 2026-04-21 03:19 | 37.81399 | -113.04944 | 36155 ft | 434 kts | 210° |
| 2026-04-21 03:19 | 37.76017 | -113.08762 | 36158 ft | 433 kts | 211° |
| 2026-04-21 03:20 | 37.70607 | -113.12739 | 36148 ft | 433 kts | 211° |
| 2026-04-21 03:20 | 37.65216 | -113.16699 | 36134 ft | 432 kts | 211° |
| 2026-04-21 03:21 | 37.59874 | -113.20609 | 36114 ft | 432 kts | 211° |
| 2026-04-21 03:21 | 37.54474 | -113.24549 | 36091 ft | 432 kts | 211° |
| 2026-04-21 03:22 | 37.49154 | -113.28425 | 36077 ft | 432 kts | 211° |
| 2026-04-21 03:22 | 37.43864 | -113.32271 | 36068 ft | 431 kts | 211° |
| 2026-04-21 03:23 | 37.38470 | -113.36187 | 36051 ft | 431 kts | 211° |
| 2026-04-21 03:23 | 37.33120 | -113.40065 | 36027 ft | 431 kts | 211° |
| 2026-04-21 03:24 | 37.27757 | -113.43948 | 36030 ft | 431 kts | 211° |
| 2026-04-21 03:24 | 37.22403 | -113.47820 | 36053 ft | 431 kts | 211° |
| 2026-04-21 03:25 | 37.17030 | -113.51696 | 36074 ft | 431 kts | 211° |
| 2026-04-21 03:25 | 37.11690 | -113.55541 | 36087 ft | 431 kts | 211° |
| 2026-04-21 03:26 | 37.06319 | -113.59399 | 36072 ft | 430 kts | 211° |
| 2026-04-21 03:26 | 37.00923 | -113.63264 | 36045 ft | 430 kts | 211° |
| 2026-04-21 03:27 | 36.95641 | -113.67061 | 36044 ft | 432 kts | 211° |
| 2026-04-21 03:27 | 36.90342 | -113.70880 | 36070 ft | 440 kts | 211° |
| 2026-04-21 03:28 | 36.85009 | -113.74683 | 36090 ft | 441 kts | 210° |
| 2026-04-21 03:28 | 36.79644 | -113.78497 | 36087 ft | 441 kts | 210° |
| 2026-04-21 03:29 | 36.74280 | -113.82309 | 36068 ft | 441 kts | 210° |
| 2026-04-21 03:29 | 36.68925 | -113.86105 | 36034 ft | 441 kts | 210° |
| 2026-04-21 03:30 | 36.63580 | -113.89893 | 36004 ft | 441 kts | 210° |
| 2026-04-21 03:30 | 36.58238 | -113.93677 | 35985 ft | 439 kts | 210° |
| 2026-04-21 03:31 | 36.52945 | -113.97427 | 35979 ft | 433 kts | 210° |
| 2026-04-21 03:31 | 36.47720 | -114.01118 | 35982 ft | 426 kts | 209° |
| 2026-04-21 03:32 | 36.42548 | -114.04761 | 35967 ft | 425 kts | 209° |
| 2026-04-21 03:32 | 36.37373 | -114.08402 | 35942 ft | 424 kts | 209° |
| 2026-04-21 03:33 | 36.32201 | -114.12038 | 35924 ft | 423 kts | 209° |
| 2026-04-21 03:33 | 36.27037 | -114.15661 | 35923 ft | 422 kts | 209° |
| 2026-04-21 03:34 | 36.21883 | -114.19273 | 35947 ft | 422 kts | 209° |
| 2026-04-21 03:34 | 36.16716 | -114.22886 | 35968 ft | 428 kts | 210° |
| 2026-04-21 03:35 | 36.11633 | -114.26877 | 35962 ft | 433 kts | 215° |
| 2026-04-21 03:35 | 36.06900 | -114.31543 | 35929 ft | 434 kts | 221° |
| 2026-04-21 03:36 | 36.02612 | -114.36807 | 35903 ft | 435 kts | 227° |
| 2026-04-21 03:36 | 35.98573 | -114.42409 | 35888 ft | 435 kts | 227° |
| 2026-04-21 03:37 | 35.94563 | -114.47968 | 35890 ft | 435 kts | 227° |
| 2026-04-21 03:37 | 35.90507 | -114.53578 | 35897 ft | 435 kts | 227° |
| 2026-04-21 03:38 | 35.86457 | -114.59138 | 35903 ft | 435 kts | 227° |
| 2026-04-21 03:38 | 35.82400 | -114.64697 | 35908 ft | 434 kts | 227° |
| 2026-04-21 03:39 | 35.78376 | -114.70248 | 35903 ft | 434 kts | 227° |
| 2026-04-21 03:39 | 35.74336 | -114.75816 | 35889 ft | 433 kts | 227° |
| 2026-04-21 03:40 | 35.70290 | -114.81367 | 35887 ft | 432 kts | 227° |
| 2026-04-21 03:40 | 35.66270 | -114.86862 | 35899 ft | 432 kts | 227° |
| 2026-04-21 03:41 | 35.62244 | -114.92359 | 35919 ft | 431 kts | 227° |
| 2026-04-21 03:41 | 35.58223 | -114.97845 | 35956 ft | 431 kts | 227° |
| 2026-04-21 03:42 | 35.54180 | -115.03352 | 35981 ft | 430 kts | 227° |
| 2026-04-21 03:42 | 35.50205 | -115.08851 | 35961 ft | 430 kts | 230° |
| 2026-04-21 03:43 | 35.46411 | -115.14553 | 35945 ft | 430 kts | 230° |
| 2026-04-21 03:43 | 35.42623 | -115.20247 | 35913 ft | 430 kts | 230° |
| 2026-04-21 03:44 | 35.38849 | -115.25916 | 35849 ft | 429 kts | 230° |
| 2026-04-21 03:44 | 35.35066 | -115.31587 | 35768 ft | 429 kts | 230° |
| 2026-04-21 03:45 | 35.31273 | -115.37264 | 35708 ft | 429 kts | 230° |
| 2026-04-21 03:45 | 35.27482 | -115.42930 | 35676 ft | 428 kts | 230° |
| 2026-04-21 03:46 | 35.23695 | -115.48580 | 35677 ft | 428 kts | 230° |
| 2026-04-21 03:46 | 35.19894 | -115.54236 | 35727 ft | 428 kts | 230° |
| 2026-04-21 03:47 | 35.16116 | -115.59851 | 35796 ft | 428 kts | 230° |
| 2026-04-21 03:47 | 35.12318 | -115.65491 | 35890 ft | 428 kts | 230° |
| 2026-04-21 03:48 | 35.08522 | -115.71145 | 35961 ft | 427 kts | 230° |
| 2026-04-21 03:48 | 35.04731 | -115.76775 | 35959 ft | 427 kts | 230° |
| 2026-04-21 03:49 | 35.00957 | -115.82359 | 35952 ft | 426 kts | 230° |
| 2026-04-21 03:49 | 34.97156 | -115.87970 | 35934 ft | 425 kts | 230° |
| 2026-04-21 03:50 | 34.93367 | -115.93550 | 35930 ft | 426 kts | 230° |
| 2026-04-21 03:50 | 34.89579 | -115.99126 | 35939 ft | 426 kts | 230° |
| 2026-04-21 03:51 | 34.85783 | -116.04666 | 35939 ft | 426 kts | 230° |
| 2026-04-21 03:51 | 34.83868 | -116.07458 | 35820 ft | 426 kts | 230° |
| 2026-04-21 03:51 | 34.81961 | -116.10243 | 35622 ft | 426 kts | 230° |
| 2026-04-21 03:52 | 34.80064 | -116.13016 | 35344 ft | 425 kts | 230° |
| 2026-04-21 03:52 | 34.78175 | -116.15777 | 34955 ft | 424 kts | 230° |
| 2026-04-21 03:52 | 34.76280 | -116.18545 | 34384 ft | 424 kts | 230° |
| 2026-04-21 03:52 | 34.74389 | -116.21304 | 33736 ft | 425 kts | 230° |
| 2026-04-21 03:53 | 34.72487 | -116.24078 | 33079 ft | 431 kts | 230° |
| 2026-04-21 03:53 | 34.70545 | -116.26909 | 32396 ft | 434 kts | 230° |
| 2026-04-21 03:53 | 34.68610 | -116.29728 | 31698 ft | 431 kts | 230° |
| 2026-04-21 03:53 | 34.66703 | -116.32507 | 30973 ft | 428 kts | 230° |
| 2026-04-21 03:54 | 34.64781 | -116.35307 | 30360 ft | 423 kts | 230° |
| 2026-04-21 03:54 | 34.62891 | -116.38058 | 29847 ft | 423 kts | 229° |
| 2026-04-21 03:54 | 34.60989 | -116.40821 | 29386 ft | 422 kts | 229° |
| 2026-04-21 03:54 | 34.59111 | -116.43549 | 28949 ft | 421 kts | 229° |
| 2026-04-21 03:55 | 34.57234 | -116.46271 | 28477 ft | 419 kts | 229° |
| 2026-04-21 03:55 | 34.55368 | -116.48976 | 27982 ft | 417 kts | 229° |
| 2026-04-21 03:55 | 34.53483 | -116.51706 | 27483 ft | 414 kts | 229° |
| 2026-04-21 03:55 | 34.51647 | -116.54361 | 27014 ft | 412 kts | 229° |
| 2026-04-21 03:56 | 34.49797 | -116.57034 | 26555 ft | 409 kts | 229° |
| 2026-04-21 03:56 | 34.47963 | -116.59685 | 26108 ft | 406 kts | 229° |
| 2026-04-21 03:56 | 34.46157 | -116.62292 | 25674 ft | 403 kts | 229° |
| 2026-04-21 03:56 | 34.44363 | -116.64881 | 25232 ft | 401 kts | 229° |
| 2026-04-21 03:57 | 34.42562 | -116.67484 | 24790 ft | 398 kts | 228° |
| 2026-04-21 03:57 | 34.40783 | -116.70063 | 24359 ft | 395 kts | 228° |
| 2026-04-21 03:57 | 34.39025 | -116.72605 | 23954 ft | 393 kts | 228° |
| 2026-04-21 03:57 | 34.37253 | -116.75159 | 23526 ft | 390 kts | 228° |
| 2026-04-21 03:58 | 34.35493 | -116.77691 | 23088 ft | 388 kts | 228° |
| 2026-04-21 03:58 | 34.33778 | -116.80156 | 22651 ft | 385 kts | 228° |
| 2026-04-21 03:58 | 34.32041 | -116.82651 | 22213 ft | 383 kts | 228° |
| 2026-04-21 03:58 | 34.30305 | -116.85137 | 21791 ft | 380 kts | 228° |
| 2026-04-21 03:59 | 34.28594 | -116.87585 | 21381 ft | 378 kts | 228° |
| 2026-04-21 03:59 | 34.26893 | -116.90020 | 20979 ft | 375 kts | 228° |
| 2026-04-21 03:59 | 34.25219 | -116.92415 | 20587 ft | 372 kts | 228° |
| 2026-04-21 04:00 | 34.21981 | -116.97257 | 19809 ft | 365 kts | 235° |
| 2026-04-21 04:00 | 34.20752 | -116.99969 | 19398 ft | 363 kts | 244° |
| 2026-04-21 04:00 | 34.19880 | -117.02799 | 19009 ft | 359 kts | 249° |
| 2026-04-21 04:00 | 34.19105 | -117.05666 | 18605 ft | 354 kts | 249° |
| 2026-04-21 04:01 | 34.18350 | -117.08519 | 18179 ft | 349 kts | 249° |
| 2026-04-21 04:01 | 34.17606 | -117.11306 | 17758 ft | 345 kts | 249° |
| 2026-04-21 04:01 | 34.16861 | -117.14068 | 17396 ft | 343 kts | 249° |
| 2026-04-21 04:01 | 34.16111 | -117.16812 | 17015 ft | 341 kts | 249° |
| 2026-04-21 04:02 | 34.15353 | -117.19564 | 16622 ft | 339 kts | 249° |
| 2026-04-21 04:02 | 34.14604 | -117.22280 | 16244 ft | 336 kts | 249° |
| 2026-04-21 04:02 | 34.13855 | -117.24998 | 15847 ft | 332 kts | 249° |
| 2026-04-21 04:02 | 34.13130 | -117.27627 | 15470 ft | 328 kts | 249° |
| 2026-04-21 04:03 | 34.12402 | -117.30266 | 15095 ft | 324 kts | 249° |
| 2026-04-21 04:03 | 34.11688 | -117.32851 | 14730 ft | 322 kts | 249° |
| 2026-04-21 04:03 | 34.10966 | -117.35461 | 14342 ft | 321 kts | 249° |
| 2026-04-21 04:03 | 34.10267 | -117.38039 | 13937 ft | 317 kts | 250° |
| 2026-04-21 04:04 | 34.09629 | -117.40578 | 13641 ft | 310 kts | 250° |
| 2026-04-21 04:04 | 34.09020 | -117.43044 | 13260 ft | 307 kts | 250° |
| 2026-04-21 04:04 | 34.08409 | -117.45496 | 12836 ft | 305 kts | 250° |
| 2026-04-21 04:04 | 34.07797 | -117.47952 | 12502 ft | 300 kts | 250° |
| 2026-04-21 04:05 | 34.07197 | -117.50359 | 12133 ft | 297 kts | 250° |
| 2026-04-21 04:05 | 34.06589 | -117.52749 | 11678 ft | 295 kts | 250° |
| 2026-04-21 04:05 | 34.05981 | -117.55132 | 11213 ft | 294 kts | 250° |
| 2026-04-21 04:05 | 34.05365 | -117.57526 | 10739 ft | 294 kts | 250° |
| 2026-04-21 04:06 | 34.04751 | -117.59928 | 10316 ft | 292 kts | 250° |
| 2026-04-21 04:06 | 34.04151 | -117.62279 | 9994 ft | 287 kts | 251° |
| 2026-04-21 04:06 | 34.03570 | -117.64556 | 9635 ft | 285 kts | 251° |
| 2026-04-21 04:06 | 34.02981 | -117.66858 | 9196 ft | 285 kts | 251° |
| 2026-04-21 04:07 | 34.02429 | -117.69184 | 8814 ft | 283 kts | 255° |
| 2026-04-21 04:07 | 34.02061 | -117.71540 | 8461 ft | 281 kts | 261° |
| 2026-04-21 04:07 | 34.01829 | -117.73866 | 8128 ft | 278 kts | 262° |
| 2026-04-21 04:07 | 34.01609 | -117.76195 | 7804 ft | 276 kts | 262° |
| 2026-04-21 04:08 | 34.01390 | -117.78497 | 7486 ft | 273 kts | 262° |
| 2026-04-21 04:08 | 34.01173 | -117.80753 | 7175 ft | 270 kts | 262° |
| 2026-04-21 04:08 | 34.00956 | -117.82988 | 6871 ft | 268 kts | 263° |
| 2026-04-21 04:08 | 34.00735 | -117.85242 | 6571 ft | 265 kts | 263° |
| 2026-04-21 04:09 | 34.00520 | -117.87431 | 6278 ft | 262 kts | 263° |
| 2026-04-21 04:09 | 34.00305 | -117.89623 | 5992 ft | 260 kts | 263° |
| 2026-04-21 04:09 | 34.00093 | -117.91789 | 5710 ft | 258 kts | 263° |
| 2026-04-21 04:09 | 33.99882 | -117.93935 | 5410 ft | 256 kts | 263° |
| 2026-04-21 04:10 | 33.99673 | -117.96089 | 5118 ft | 254 kts | 264° |
| 2026-04-21 04:10 | 33.99471 | -117.98149 | 5081 ft | 239 kts | 264° |
| 2026-04-21 04:10 | 33.99281 | -118.00078 | 5044 ft | 226 kts | 264° |
| 2026-04-21 04:10 | 33.99094 | -118.01959 | 4837 ft | 222 kts | 264° |
| 2026-04-21 04:11 | 33.98909 | -118.03823 | 4552 ft | 221 kts | 264° |
| 2026-04-21 04:11 | 33.98749 | -118.05676 | 4269 ft | 221 kts | 265° |
| 2026-04-21 04:11 | 33.98598 | -118.07558 | 3986 ft | 220 kts | 265° |
| 2026-04-21 04:11 | 33.98434 | -118.09398 | 3709 ft | 219 kts | 264° |
| 2026-04-21 04:12 | 33.98252 | -118.11251 | 3427 ft | 219 kts | 263° |
| 2026-04-21 04:12 | 33.98062 | -118.13074 | 3147 ft | 218 kts | 263° |
| 2026-04-21 04:12 | 33.97869 | -118.14883 | 2881 ft | 217 kts | 263° |
| 2026-04-21 04:12 | 33.97672 | -118.16694 | 2606 ft | 215 kts | 263° |
| 2026-04-21 04:13 | 33.97476 | -118.18505 | 2316 ft | 215 kts | 263° |
| 2026-04-21 04:13 | 33.97285 | -118.20283 | 2203 ft | 209 kts | 263° |
| 2026-04-21 04:13 | 33.97105 | -118.21965 | 2186 ft | 196 kts | 263° |
| 2026-04-21 04:13 | 33.96932 | -118.23601 | 2192 ft | 195 kts | 263° |
| 2026-04-21 04:14 | 33.96762 | -118.25201 | 2270 ft | 181 kts | 263° |
| 2026-04-21 04:14 | 33.96611 | -118.26650 | 2228 ft | 164 kts | 263° |
| 2026-04-21 04:14 | 33.96474 | -118.27973 | 2096 ft | 154 kts | 263° |
| 2026-04-21 04:14 | 33.96341 | -118.29256 | 1891 ft | 153 kts | 263° |
| 2026-04-21 04:15 | 33.96210 | -118.30520 | 1697 ft | 146 kts | 263° |
| 2026-04-21 04:15 | 33.96089 | -118.31682 | 1479 ft | 134 kts | 263° |
| 2026-04-21 04:15 | 33.95973 | -118.32799 | 1310 ft | 132 kts | 263° |
| 2026-04-21 04:15 | 33.95860 | -118.33889 | 1141 ft | 130 kts | 263° |
| 2026-04-21 04:16 | 33.95747 | -118.34978 | 971 ft | 128 kts | 263° |
| 2026-04-21 04:16 | 33.95638 | -118.36041 | 805 ft | 126 kts | 263° |
| 2026-04-21 04:16 | 33.95528 | -118.37106 | 637 ft | 126 kts | 263° |
| 2026-04-21 04:16 | 33.95418 | -118.38166 | 470 ft | 125 kts | 263° |
| 2026-04-21 04:17 | 33.95312 | -118.39218 | 303 ft | 125 kts | 263° |
| 2026-04-21 04:17 | 33.95205 | -118.40269 | 146 ft | 123 kts | 263° |
| 2026-04-21 04:17 | 33.95107 | -118.41214 | 123 ft | 96 kts | 264° |
| 2026-04-21 04:17 | 33.95041 | -118.41840 | 123 ft | 55 kts | 262° |
| 2026-04-21 04:18 | 33.94943 | -118.42187 | 120 ft | 39 kts | 232° |
| 2026-04-21 04:18 | 33.94776 | -118.42281 | 117 ft | 24 kts | 174° |
| 2026-04-21 04:18 | 33.94706 | -118.42268 | 117 ft | 3 kts | 168° |
| 2026-04-21 04:18 | 33.94687 | -118.42248 | 117 ft | 4 kts | 101° |
| 2026-04-21 04:19 | 33.94685 | -118.42201 | 117 ft | 6 kts | 92° |
| 2026-04-21 04:19 | 33.94693 | -118.42146 | 117 ft | 6 kts | 79° |
| 2026-04-21 04:19 | 33.94694 | -118.42131 | 118 ft | 0 kts | 83° |
| 2026-04-21 04:20 | 33.94696 | -118.42119 | 118 ft | 2 kts | 83° |
| 2026-04-21 04:20 | 33.94700 | -118.42075 | 119 ft | 9 kts | 83° |
| 2026-04-21 04:20 | 33.94711 | -118.41963 | 120 ft | 11 kts | 82° |
| 2026-04-21 04:21 | 33.94717 | -118.41898 | 120 ft | 4 kts | 104° |
| 2026-04-21 04:21 | 33.94710 | -118.41897 | 120 ft | 0 kts | 190° |
| 2026-04-21 04:21 | 33.94704 | -118.41880 | 120 ft | 9 kts | 94° |
| 2026-04-21 04:21 | 33.94652 | -118.41822 | 120 ft | 11 kts | 171° |
| 2026-04-21 04:22 | 33.94561 | -118.41808 | 118 ft | 14 kts | 173° |
| 2026-04-21 04:22 | 33.94455 | -118.41791 | 117 ft | 16 kts | 173° |
| 2026-04-21 04:22 | 33.94342 | -118.41775 | 117 ft | 16 kts | 174° |
| 2026-04-21 04:22 | 33.94224 | -118.41760 | 117 ft | 17 kts | 170° |
| 2026-04-21 04:23 | 33.94104 | -118.41737 | 118 ft | 16 kts | 173° |
| 2026-04-21 04:23 | 33.93987 | -118.41722 | 119 ft | 16 kts | 173° |
| 2026-04-21 04:23 | 33.93877 | -118.41704 | 121 ft | 15 kts | 172° |
| 2026-04-21 04:23 | 33.93771 | -118.41690 | 123 ft | 15 kts | 174° |
| 2026-04-21 04:24 | 33.93713 | -118.41615 | 124 ft | 13 kts | 84° |
| 2026-04-21 04:24 | 33.93725 | -118.41502 | 125 ft | 13 kts | 83° |
| 2026-04-21 04:24 | 33.93737 | -118.41381 | 125 ft | 14 kts | 83° |
| 2026-04-21 04:24 | 33.93750 | -118.41260 | 126 ft | 14 kts | 83° |
| 2026-04-21 04:25 | 33.93763 | -118.41134 | 126 ft | 15 kts | 83° |
| 2026-04-21 04:25 | 33.93775 | -118.40999 | 126 ft | 16 kts | 83° |
| 2026-04-21 04:25 | 33.93789 | -118.40860 | 126 ft | 17 kts | 83° |
| 2026-04-21 04:25 | 33.93805 | -118.40716 | 126 ft | 17 kts | 83° |
| 2026-04-21 04:26 | 33.93821 | -118.40563 | 124 ft | 19 kts | 83° |
| 2026-04-21 04:26 | 33.93839 | -118.40394 | 121 ft | 21 kts | 83° |
| 2026-04-21 04:26 | 33.93875 | -118.40295 | 120 ft | 10 kts | 8° |
| 2026-04-21 04:26 | 33.93953 | -118.40305 | 120 ft | 11 kts | 349° |
| 2026-04-21 04:27 | 33.94014 | -118.40321 | 120 ft | 5 kts | 309° |
| 2026-04-21 04:27 | 33.94017 | -118.40354 | 120 ft | 3 kts | 273° |
| 2026-04-21 04:27 | 33.94018 | -118.40377 | 120 ft | 0 kts | 271° |